createdAt,value
2022-08-12T00:02:02.928Z,100.00
2022-08-12T00:04:53.889Z,100.00
2022-08-12T00:07:39.273Z,100.00
2022-08-12T00:10:26.222Z,100.00
2022-08-12T00:13:13.574Z,100.00
2022-08-12T00:16:03.469Z,100.00
2022-08-12T00:18:51.735Z,100.00
2022-08-12T00:21:38.148Z,100.00
2022-08-12T00:24:24.842Z,100.00
2022-08-12T00:27:12.567Z,100.00
2022-08-12T00:29:58.343Z,100.00
2022-08-12T00:32:53.444Z,100.00
2022-08-12T00:35:40.865Z,100.00
2022-08-12T00:38:26.426Z,100.00
2022-08-12T00:41:12.846Z,100.00
2022-08-12T00:43:43.549Z,100.00
2022-08-12T00:46:36.268Z,100.00
2022-08-12T00:49:04.561Z,100.00
2022-08-12T00:51:49.840Z,100.00
2022-08-12T00:54:19.413Z,100.00
2022-08-12T00:56:48.808Z,100.00
2022-08-12T00:59:17.092Z,100.00
2022-08-12T01:02:10.726Z,100.00
2022-08-12T01:04:55.760Z,100.00
2022-08-12T01:07:43.485Z,100.00
2022-08-12T01:10:32.960Z,100.00
2022-08-12T01:13:07.536Z,100.00
2022-08-12T01:15:47.605Z,100.00
2022-08-12T01:18:15.108Z,100.00
2022-08-12T01:20:53.246Z,100.00
2022-08-12T01:23:45.808Z,100.00
2022-08-12T01:26:19.814Z,100.00
2022-08-12T01:28:48.469Z,100.00
2022-08-12T01:31:18.540Z,100.00
2022-08-12T01:34:28.693Z,100.00
2022-08-12T01:37:00.165Z,100.00
2022-08-12T01:39:31.133Z,100.00
2022-08-12T01:42:07.637Z,100.00
2022-08-12T01:44:34.838Z,100.00
2022-08-12T01:47:22.482Z,100.00
2022-08-12T01:50:36.965Z,100.00
2022-08-12T01:53:09.129Z,100.00
2022-08-12T01:55:38.823Z,100.00
2022-08-12T01:58:28.957Z,100.00
2022-08-12T02:01:01.585Z,100.00
2022-08-12T02:04:22.571Z,100.00
2022-08-12T02:07:23.317Z,100.00
2022-08-12T02:10:49.045Z,100.00
2022-08-12T02:13:48.145Z,100.00
2022-08-12T02:16:30.380Z,100.00
2022-08-12T02:19:28.595Z,100.00
2022-08-12T02:22:21.413Z,100.00
2022-08-12T02:24:50.222Z,100.00
2022-08-12T02:27:19.393Z,100.00
2022-08-12T02:29:46.010Z,100.00
2022-08-12T02:32:13.795Z,100.00
2022-08-12T02:34:40.693Z,100.00
2022-08-12T02:37:08.941Z,100.00
2022-08-12T02:39:37.285Z,100.00
2022-08-12T02:42:05.283Z,100.00
2022-08-12T02:44:36.301Z,100.00
2022-08-12T02:47:06.238Z,100.00
2022-08-12T02:49:35.781Z,100.00
2022-08-12T02:52:02.919Z,100.00
2022-08-12T02:54:29.590Z,100.00
2022-08-12T02:56:56.231Z,100.00
2022-08-12T02:59:24.315Z,100.00
2022-08-12T03:01:53.796Z,100.00
2022-08-12T03:04:26.507Z,100.00
2022-08-12T03:07:01.271Z,100.00
2022-08-12T03:09:34.104Z,100.00
2022-08-12T03:12:20.208Z,100.00
2022-08-12T03:14:47.052Z,100.00
2022-08-12T03:17:26.095Z,100.00
2022-08-12T03:20:09.327Z,100.00
2022-08-12T03:22:43.196Z,100.00
2022-08-12T03:25:15.028Z,100.00
2022-08-12T03:27:51.578Z,100.00
2022-08-12T03:30:19.257Z,100.00
2022-08-12T03:32:51.020Z,100.00
2022-08-12T03:35:41.286Z,100.00
2022-08-12T03:38:12.115Z,100.00
2022-08-12T03:41:13.282Z,100.00
2022-08-12T03:44:10.784Z,100.00
2022-08-12T03:47:00.488Z,100.00
2022-08-12T03:49:45.756Z,100.00
2022-08-12T03:52:31.262Z,100.00
2022-08-12T03:55:16.553Z,100.00
2022-08-12T03:58:01.934Z,100.00
2022-08-12T04:00:30.396Z,100.00
2022-08-12T04:03:03.012Z,100.00
2022-08-12T04:05:54.362Z,100.00
2022-08-12T04:08:18.824Z,100.00
2022-08-12T04:11:04.118Z,100.00
2022-08-12T04:13:30.773Z,100.00
2022-08-12T04:15:58.605Z,100.00
2022-08-12T04:18:25.786Z,100.00
2022-08-12T04:20:52.651Z,100.00
2022-08-12T04:23:19.655Z,100.00
2022-08-12T04:25:46.298Z,100.00
2022-08-12T04:28:13.771Z,100.00
2022-08-12T04:30:40.748Z,100.00
2022-08-12T04:33:25.378Z,100.00
2022-08-12T04:35:52.039Z,100.00
2022-08-12T04:38:19.891Z,100.00
2022-08-12T04:40:46.991Z,100.00
2022-08-12T04:44:01.195Z,100.00
2022-08-12T04:46:02.840Z,100.00
2022-08-12T04:48:29.467Z,100.00
2022-08-12T04:50:57.278Z,100.00
2022-08-12T04:53:24.220Z,100.00
2022-08-12T04:55:52.243Z,100.00
2022-08-12T04:58:29.441Z,100.00
2022-08-12T05:00:56.849Z,100.00
2022-08-12T05:03:25.557Z,100.00
2022-08-12T05:05:52.351Z,100.00
2022-08-12T05:08:19.526Z,100.00
2022-08-12T05:10:47.439Z,100.00
2022-08-12T05:13:18.032Z,100.00
2022-08-12T05:16:03.652Z,100.00
2022-08-12T05:18:39.279Z,100.00
2022-08-12T05:21:07.630Z,100.00
2022-08-12T05:23:36.674Z,100.00
2022-08-12T05:26:04.958Z,100.00
2022-08-12T05:28:32.050Z,100.00
2022-08-12T05:31:01.712Z,100.00
2022-08-12T05:33:37.974Z,100.00
2022-08-12T05:36:07.706Z,100.00
2022-08-12T05:38:53.974Z,100.00
2022-08-12T05:41:20.834Z,100.00
2022-08-12T05:43:56.609Z,100.00
2022-08-12T05:46:24.541Z,100.00
2022-08-12T05:48:54.304Z,100.00
2022-08-12T05:51:24.278Z,100.00
2022-08-12T05:53:56.834Z,100.00
2022-08-12T05:56:26.649Z,100.00
2022-08-12T05:58:54.547Z,100.00
2022-08-12T06:02:08.853Z,100.00
2022-08-12T06:04:09.463Z,83.55
2022-08-12T06:06:39.715Z,82.99
2022-08-12T06:09:06.417Z,84.59
2022-08-12T06:11:33.056Z,85.41
2022-08-12T06:13:59.766Z,88.37
2022-08-12T06:16:27.219Z,88.62
2022-08-12T06:18:54.674Z,87.12
2022-08-12T06:21:21.815Z,86.82
2022-08-12T06:23:48.501Z,83.05
2022-08-12T06:26:19.096Z,76.47
2022-08-12T06:28:50.914Z,72.60
2022-08-12T06:31:27.367Z,70.91
2022-08-12T06:35:19.268Z,69.19
2022-08-12T06:36:42.933Z,66.44
2022-08-12T06:39:14.430Z,62.17
2022-08-12T06:42:31.913Z,58.09
2022-08-12T06:44:50.468Z,53.21
2022-08-12T06:47:18.587Z,53.74
2022-08-12T06:49:45.201Z,52.59
2022-08-12T06:52:11.833Z,51.47
2022-08-12T06:54:38.508Z,52.74
2022-08-12T06:58:01.827Z,54.32
2022-08-12T06:59:51.829Z,51.61
2022-08-12T07:02:20.622Z,51.91
2022-08-12T07:04:47.546Z,47.68
2022-08-12T07:07:14.231Z,47.32
2022-08-12T07:10:03.854Z,41.68
2022-08-12T07:12:29.435Z,43.48
2022-08-12T07:15:01.655Z,44.50
2022-08-12T07:17:35.866Z,42.22
2022-08-12T07:20:05.444Z,37.84
2022-08-12T07:22:33.027Z,41.04
2022-08-12T07:25:18.272Z,40.87
2022-08-12T07:27:46.713Z,39.69
2022-08-12T07:30:14.323Z,39.06
2022-08-12T07:32:41.224Z,37.94
2022-08-12T07:35:08.765Z,35.90
2022-08-12T07:37:40.626Z,33.93
2022-08-12T07:40:11.623Z,34.57
2022-08-12T07:42:39.670Z,33.17
2022-08-12T07:45:07.448Z,33.54
2022-08-12T07:47:34.590Z,32.97
2022-08-12T07:50:05.232Z,32.40
2022-08-12T07:52:35.450Z,30.29
2022-08-12T07:55:03.492Z,31.21
2022-08-12T07:57:32.531Z,31.16
2022-08-12T08:00:06.460Z,29.90
2022-08-12T08:02:33.773Z,28.96
2022-08-12T08:05:00.713Z,29.90
2022-08-12T08:07:30.858Z,28.87
2022-08-12T08:10:01.458Z,29.92
2022-08-12T08:12:47.773Z,29.33
2022-08-12T08:15:15.782Z,29.21
2022-08-12T08:17:59.590Z,28.92
2022-08-12T08:20:30.280Z,29.81
2022-08-12T08:22:58.609Z,28.53
2022-08-12T08:25:36.354Z,29.22
2022-08-12T08:28:19.208Z,28.38
2022-08-12T08:30:47.952Z,27.08
2022-08-12T08:33:23.612Z,28.50
2022-08-12T08:36:05.199Z,27.63
2022-08-12T08:38:35.402Z,28.25
2022-08-12T08:42:14.254Z,28.04
2022-08-12T08:44:11.105Z,28.82
2022-08-12T08:46:39.115Z,28.32
2022-08-12T08:49:06.355Z,27.89
2022-08-12T08:51:33.052Z,28.29
2022-08-12T08:53:59.868Z,27.41
2022-08-12T08:56:29.105Z,26.96
2022-08-12T08:58:56.377Z,27.05
2022-08-12T09:01:23.278Z,26.45
2022-08-12T09:05:07.390Z,26.51
2022-08-12T09:10:01.612Z,26.57
2022-08-12T09:15:21.723Z,25.85
2022-08-12T09:17:55.959Z,25.98
2022-08-12T09:20:32.724Z,25.63
2022-08-12T09:23:01.257Z,24.97
2022-08-12T09:25:35.582Z,25.23
2022-08-12T09:28:04.800Z,24.53
2022-08-12T09:30:41.236Z,24.39
2022-08-12T09:33:18.944Z,24.35
2022-08-12T09:36:04.675Z,24.23
2022-08-12T09:38:35.347Z,24.48
2022-08-12T09:42:33.289Z,24.52
2022-08-12T09:44:38.617Z,24.05
2022-08-12T09:46:56.478Z,23.83
2022-08-12T09:49:25.113Z,24.21
2022-08-12T09:51:55.182Z,24.13
2022-08-12T09:54:34.050Z,23.86
2022-08-12T09:58:46.030Z,24.27
2022-08-12T10:00:12.641Z,23.96
2022-08-12T10:03:04.215Z,23.72
2022-08-12T10:06:20.090Z,23.58
2022-08-12T10:08:27.360Z,23.55
2022-08-12T10:11:20.394Z,22.73
2022-08-12T10:13:48.680Z,22.28
2022-08-12T10:16:21.926Z,21.84
2022-08-12T10:18:57.983Z,22.26
2022-08-12T10:21:35.704Z,22.03
2022-08-12T10:24:07.730Z,21.16
2022-08-12T10:26:54.220Z,21.40
2022-08-12T10:30:11.934Z,21.27
2022-08-12T10:32:42.871Z,22.20
2022-08-12T10:35:15.562Z,22.45
2022-08-12T10:38:38.347Z,22.44
2022-08-12T10:40:33.059Z,22.69
2022-08-12T10:43:19.488Z,22.35
2022-08-12T10:45:49.286Z,23.11
2022-08-12T10:48:21.343Z,23.51
2022-08-12T10:51:02.356Z,22.95
2022-08-12T10:53:45.475Z,23.27
2022-08-12T10:56:17.255Z,23.17
2022-08-12T10:58:46.958Z,23.15
2022-08-12T11:01:50.253Z,22.89
2022-08-12T11:04:25.900Z,22.63
2022-08-12T11:07:09.296Z,22.09
2022-08-12T11:09:59.602Z,22.22
2022-08-12T11:12:55.504Z,22.67
2022-08-12T11:15:33.355Z,22.72
2022-08-12T11:18:07.545Z,22.46
2022-08-12T11:20:39.356Z,22.39
2022-08-12T11:23:25.404Z,22.84
2022-08-12T11:25:57.834Z,23.88
2022-08-12T11:28:33.784Z,23.30
2022-08-12T11:31:03.622Z,23.22
2022-08-12T11:34:04.544Z,23.62
2022-08-12T11:36:17.957Z,22.66
2022-08-12T11:38:50.797Z,22.92
2022-08-12T11:41:31.894Z,23.67
2022-08-12T11:44:20.231Z,23.09
2022-08-12T11:46:51.158Z,22.36
2022-08-12T11:49:31.550Z,23.83
2022-08-12T11:52:02.834Z,23.74
2022-08-12T11:54:31.215Z,23.71
2022-08-12T11:57:02.446Z,23.91
2022-08-12T12:02:20.801Z,23.42
2022-08-12T12:04:52.832Z,24.05
2022-08-12T12:08:36.558Z,22.99
2022-08-12T12:10:11.327Z,22.86
2022-08-12T12:12:38.133Z,23.07
2022-08-12T12:15:09.758Z,23.63
2022-08-12T12:17:38.764Z,23.53
2022-08-12T12:20:11.587Z,23.47
2022-08-12T12:22:45.163Z,23.36
2022-08-12T12:25:15.103Z,23.35
2022-08-12T12:28:04.615Z,23.87
2022-08-12T12:30:33.914Z,23.15
2022-08-12T12:33:00.826Z,23.50
2022-08-12T12:36:19.661Z,22.96
2022-08-12T12:38:16.127Z,23.08
2022-08-12T12:40:45.659Z,22.65
2022-08-12T12:43:14.090Z,23.07
2022-08-12T12:45:44.386Z,22.73
2022-08-12T12:48:21.103Z,23.54
2022-08-12T12:51:12.161Z,23.68
2022-08-12T12:54:07.152Z,23.71
2022-08-12T12:56:34.705Z,23.21
2022-08-12T12:59:03.725Z,23.99
2022-08-12T13:01:38.311Z,23.15
2022-08-12T13:04:12.189Z,23.99
2022-08-12T13:06:42.098Z,23.62
2022-08-12T13:09:13.221Z,23.71
2022-08-12T13:11:41.959Z,23.58
2022-08-12T13:14:29.604Z,23.01
2022-08-12T13:17:06.040Z,23.24
2022-08-12T13:19:45.110Z,23.22
2022-08-12T13:22:20.411Z,23.97
2022-08-12T13:24:52.215Z,23.70
2022-08-12T13:27:35.503Z,23.63
2022-08-12T13:30:11.353Z,23.51
2022-08-12T13:32:40.888Z,23.60
2022-08-12T13:35:20.013Z,23.45
2022-08-12T13:37:56.684Z,23.17
2022-08-12T13:40:25.353Z,23.71
2022-08-12T13:42:57.445Z,23.98
2022-08-12T13:45:25.538Z,23.70
2022-08-12T13:48:03.037Z,23.80
2022-08-12T13:50:39.268Z,23.18
2022-08-12T13:53:24.841Z,23.99
2022-08-12T13:55:59.390Z,23.13
2022-08-12T13:58:27.978Z,22.88
2022-08-12T14:00:58.075Z,23.59
2022-08-12T14:03:28.044Z,23.96
2022-08-12T14:05:59.355Z,24.21
2022-08-12T14:08:34.523Z,24.99
2022-08-12T14:11:02.164Z,25.58
2022-08-12T14:14:06.077Z,26.03
2022-08-12T14:16:37.616Z,26.16
2022-08-12T14:19:10.694Z,26.17
2022-08-12T14:21:59.879Z,26.15
2022-08-12T14:24:35.132Z,26.14
2022-08-12T14:27:09.348Z,26.57
2022-08-12T14:30:04.484Z,27.29
2022-08-12T14:32:35.235Z,26.04
2022-08-12T14:35:05.357Z,25.94
2022-08-12T14:37:55.899Z,26.08
2022-08-12T14:40:27.586Z,26.12
2022-08-12T14:42:55.810Z,26.36
2022-08-12T14:45:37.058Z,24.98
2022-08-12T14:48:12.601Z,25.36
2022-08-12T14:51:03.287Z,24.83
2022-08-12T14:57:19.521Z,25.15
2022-08-12T14:59:57.240Z,25.29
2022-08-12T15:02:17.180Z,25.06
2022-08-12T15:04:45.357Z,25.26
2022-08-12T15:07:43.795Z,25.25
2022-08-12T15:10:01.613Z,25.96
2022-08-12T15:12:28.714Z,26.35
2022-08-12T15:14:59.134Z,26.98
2022-08-12T15:17:37.999Z,26.51
2022-08-12T15:20:27.930Z,27.27
2022-08-12T15:22:54.026Z,27.22
2022-08-12T15:25:21.267Z,28.33
2022-08-12T15:28:11.025Z,28.71
2022-08-12T15:30:38.868Z,28.77
2022-08-12T15:33:14.790Z,28.73
2022-08-12T15:35:52.216Z,29.03
2022-08-12T15:38:31.338Z,28.51
2022-08-12T15:41:01.053Z,28.29
2022-08-12T15:43:51.607Z,27.79
2022-08-12T15:46:21.168Z,27.87
2022-08-12T15:48:54.693Z,27.36
2022-08-12T15:51:58.239Z,27.04
2022-08-12T15:54:34.994Z,26.74
2022-08-12T15:57:08.073Z,27.11
2022-08-12T16:00:00.046Z,26.97
2022-08-12T16:02:39.566Z,27.03
2022-08-12T16:06:13.294Z,26.79
2022-08-12T16:07:58.613Z,27.56
2022-08-12T16:10:31.006Z,27.44
2022-08-12T16:13:04.695Z,27.43
2022-08-12T16:15:36.926Z,28.36
2022-08-12T16:18:25.898Z,28.18
2022-08-12T16:20:53.425Z,28.48
2022-08-12T16:23:36.303Z,29.00
2022-08-12T16:26:14.443Z,28.94
2022-08-12T16:28:43.894Z,28.74
2022-08-12T16:31:23.341Z,30.15
2022-08-12T16:33:59.849Z,29.69
2022-08-12T16:36:29.209Z,30.36
2022-08-12T16:38:56.425Z,29.61
2022-08-12T16:41:23.355Z,29.64
2022-08-12T16:43:50.552Z,29.39
2022-08-12T16:46:31.786Z,30.10
2022-08-12T16:49:09.350Z,30.52
2022-08-12T16:51:46.877Z,30.23
2022-08-12T16:54:18.991Z,30.06
2022-08-12T16:56:54.890Z,30.15
2022-08-12T16:59:25.590Z,30.46
2022-08-12T17:01:53.772Z,30.29
2022-08-12T17:04:20.578Z,31.21
2022-08-12T17:06:52.627Z,31.65
2022-08-12T17:09:19.678Z,32.03
2022-08-12T17:11:49.828Z,31.40
2022-08-12T17:14:17.462Z,31.63
2022-08-12T17:16:51.834Z,31.25
2022-08-12T17:19:19.652Z,32.19
2022-08-12T17:22:01.049Z,32.40
2022-08-12T17:24:32.511Z,32.33
2022-08-12T17:27:15.764Z,33.17
2022-08-12T17:30:01.943Z,33.37
2022-08-12T17:32:31.307Z,32.80
2022-08-12T17:35:16.576Z,33.71
2022-08-12T17:37:44.732Z,34.11
2022-08-12T17:40:34.343Z,33.67
2022-08-12T17:43:54.566Z,35.91
2022-08-12T17:45:56.141Z,35.33
2022-08-12T17:48:35.242Z,35.74
2022-08-12T17:51:15.539Z,34.52
2022-08-12T17:54:11.675Z,35.87
2022-08-12T17:56:37.179Z,34.76
2022-08-12T17:59:04.205Z,36.29
2022-08-12T18:01:35.773Z,36.76
2022-08-12T18:04:21.452Z,36.09
2022-08-12T18:06:53.946Z,37.43
2022-08-12T18:09:24.701Z,37.27
2022-08-12T18:12:24.791Z,38.04
2022-08-12T18:14:56.486Z,38.12
2022-08-12T18:17:29.169Z,39.08
2022-08-12T18:20:06.636Z,39.96
2022-08-12T18:22:35.682Z,39.53
2022-08-12T18:25:05.660Z,39.91
2022-08-12T18:27:47.195Z,40.63
2022-08-12T18:30:28.997Z,40.61
2022-08-12T18:33:04.510Z,40.86
2022-08-12T18:35:47.846Z,41.43
2022-08-12T18:38:22.311Z,41.06
2022-08-12T18:41:10.112Z,41.89
2022-08-12T18:43:58.491Z,42.08
2022-08-12T18:46:54.525Z,42.34
2022-08-12T18:49:38.677Z,43.09
2022-08-12T18:52:07.729Z,43.86
2022-08-12T18:54:41.516Z,44.50
2022-08-12T18:57:19.653Z,44.94
2022-08-12T19:00:06.578Z,45.69
2022-08-12T19:02:40.341Z,46.29
2022-08-12T19:05:10.821Z,46.79
2022-08-12T19:07:49.520Z,47.41
2022-08-12T19:10:30.933Z,47.79
2022-08-12T19:13:24.008Z,48.61
2022-08-12T19:15:57.864Z,49.01
2022-08-12T19:18:29.529Z,49.46
2022-08-12T19:20:59.173Z,49.89
2022-08-12T19:23:34.922Z,50.78
2022-08-12T19:26:05.388Z,50.42
2022-08-12T19:28:38.564Z,51.59
2022-08-12T19:31:55.710Z,51.24
2022-08-12T19:37:27.753Z,51.68
2022-08-12T19:40:19.791Z,52.16
2022-08-12T19:42:57.759Z,52.53
2022-08-12T19:45:43.871Z,52.83
2022-08-12T19:48:17.838Z,52.95
2022-08-12T19:50:50.202Z,53.03
2022-08-12T19:53:23.487Z,53.43
2022-08-12T19:55:54.307Z,54.17
2022-08-12T19:58:21.938Z,54.21
2022-08-12T20:00:56.287Z,54.49
2022-08-12T20:03:38.937Z,54.90
2022-08-12T20:06:13.917Z,55.40
2022-08-12T20:08:49.031Z,55.70
2022-08-12T20:12:14.441Z,55.76
2022-08-12T20:14:11.530Z,56.24
2022-08-12T20:16:57.435Z,56.53
2022-08-12T20:19:52.086Z,57.07
2022-08-12T20:22:23.462Z,57.72
2022-08-12T20:24:55.183Z,57.81
2022-08-12T20:27:29.593Z,58.01
2022-08-12T20:30:11.527Z,58.66
2022-08-12T20:33:00.742Z,58.58
2022-08-12T20:35:39.126Z,58.82
2022-08-12T20:38:26.096Z,58.93
2022-08-12T20:40:55.209Z,59.35
2022-08-12T20:43:24.114Z,59.64
2022-08-12T20:45:57.719Z,59.82
2022-08-12T20:48:28.626Z,59.95
2022-08-12T20:50:57.500Z,60.12
2022-08-12T20:53:33.211Z,60.12
2022-08-12T20:56:33.132Z,60.59
2022-08-12T20:59:03.929Z,60.47
2022-08-12T21:01:47.085Z,60.74
2022-08-12T21:04:40.654Z,60.78
2022-08-12T21:07:13.804Z,60.70
2022-08-12T21:09:47.614Z,60.59
2022-08-12T21:12:28.527Z,60.69
2022-08-12T21:15:22.883Z,61.08
2022-08-12T21:18:11.397Z,60.80
2022-08-12T21:20:52.473Z,61.19
2022-08-12T21:23:21.426Z,61.52
2022-08-12T21:25:51.032Z,62.31
2022-08-12T21:28:20.623Z,62.15
2022-08-12T21:31:11.741Z,62.53
2022-08-12T21:33:58.359Z,62.56
2022-08-12T21:36:32.188Z,62.67
2022-08-12T21:39:18.951Z,63.53
2022-08-12T21:41:52.224Z,63.61
2022-08-12T21:44:32.555Z,64.05
2022-08-12T21:47:20.366Z,63.93
2022-08-12T21:50:04.140Z,64.64
2022-08-12T21:52:40.725Z,64.49
2022-08-12T21:55:18.164Z,64.76
2022-08-12T21:57:50.904Z,65.45
2022-08-12T22:00:33.351Z,65.64
2022-08-12T22:04:10.827Z,66.18
2022-08-12T22:06:26.363Z,66.38
2022-08-12T22:09:02.286Z,66.44
2022-08-12T22:11:42.379Z,66.76
2022-08-12T22:14:21.476Z,67.17
2022-08-12T22:16:50.456Z,67.26
2022-08-12T22:19:19.668Z,67.31
2022-08-12T22:21:53.427Z,67.77
2022-08-12T22:24:26.845Z,67.44
2022-08-12T22:27:31.777Z,68.38
2022-08-12T22:30:19.967Z,68.41
2022-08-12T22:32:51.585Z,68.72
2022-08-12T22:35:55.416Z,69.36
2022-08-12T22:38:26.555Z,69.40
2022-08-12T22:41:07.429Z,70.04
2022-08-12T22:44:01.128Z,70.24
2022-08-12T22:46:37.367Z,70.43
2022-08-12T22:49:06.412Z,70.57
2022-08-12T22:52:00.519Z,70.79
2022-08-12T22:54:36.255Z,71.21
2022-08-12T22:57:05.538Z,71.41
2022-08-12T22:59:55.082Z,71.79
2022-08-12T23:02:28.734Z,72.20
2022-08-12T23:04:56.691Z,72.33
2022-08-12T23:07:24.249Z,72.59
2022-08-12T23:09:51.683Z,73.18
2022-08-12T23:12:41.322Z,73.35
2022-08-12T23:15:14.404Z,73.51
2022-08-12T23:17:41.775Z,73.43
2022-08-12T23:20:14.064Z,73.65
2022-08-12T23:22:40.725Z,73.29
2022-08-12T23:25:21.062Z,73.26
2022-08-12T23:28:29.129Z,73.11
2022-08-12T23:31:04.325Z,73.17
2022-08-12T23:34:01.798Z,73.41
2022-08-12T23:36:31.815Z,73.76
2022-08-12T23:40:13.434Z,74.45
2022-08-12T23:42:17.536Z,74.92
2022-08-12T23:44:52.557Z,75.68
2022-08-12T23:47:21.222Z,76.11
2022-08-12T23:49:57.601Z,76.22
2022-08-12T23:52:28.475Z,76.54
2022-08-12T23:55:23.804Z,76.46
2022-08-12T23:58:17.878Z,76.63
